createdAt,value
2018-03-21T00:00:23.633Z,97.81
2018-03-21T00:01:23.490Z,97.53
2018-03-21T00:02:23.437Z,98.28
2018-03-21T00:03:23.421Z,97.91
2018-03-21T00:04:23.333Z,97.53
2018-03-21T00:05:23.285Z,97.72
2018-03-21T00:06:23.261Z,97.91
2018-03-21T00:07:23.171Z,97.44
2018-03-21T00:08:23.125Z,97.34
2018-03-21T00:09:23.105Z,97.63
2018-03-21T00:10:23.016Z,97.81
2018-03-21T00:11:22.964Z,97.34
2018-03-21T00:12:22.945Z,97.44
2018-03-21T00:13:22.862Z,97.44
2018-03-21T00:14:22.805Z,97.63
2018-03-21T00:15:22.786Z,97.34
2018-03-21T00:16:22.701Z,97.81
2018-03-21T00:17:22.653Z,97.15
2018-03-21T00:18:22.629Z,97.15
2018-03-21T00:19:22.543Z,97.34
2018-03-21T00:20:22.495Z,96.96
2018-03-21T00:21:22.471Z,96.78
2018-03-21T00:22:22.387Z,97.25
2018-03-21T00:23:22.337Z,97.15
2018-03-21T00:24:22.281Z,96.59
2018-03-21T00:25:22.226Z,97.25
2018-03-21T00:26:22.179Z,97.25
2018-03-21T00:27:22.121Z,97.25
2018-03-21T00:28:22.107Z,96.49
2018-03-21T00:29:22.018Z,96.59
2018-03-21T00:30:22.067Z,96.96
2018-03-21T00:31:21.945Z,97.34
2018-03-21T00:32:21.861Z,96.68
2018-03-21T00:33:21.811Z,96.78
2018-03-21T00:34:21.753Z,97.34
2018-03-21T00:35:21.706Z,97.06
2018-03-21T00:36:21.681Z,96.78
2018-03-21T00:37:21.596Z,96.68
2018-03-21T00:38:21.545Z,96.21
2018-03-21T00:39:21.526Z,96.40
2018-03-21T00:40:21.443Z,96.49
2018-03-21T00:41:21.387Z,96.59
2018-03-21T00:42:21.367Z,96.21
2018-03-21T00:43:21.287Z,96.40
2018-03-21T00:44:21.223Z,96.87
2018-03-21T00:45:21.211Z,96.40
2018-03-21T00:46:21.121Z,96.11
2018-03-21T00:47:21.073Z,97.25
2018-03-21T00:48:21.058Z,97.15
2018-03-21T00:49:20.963Z,97.34
2018-03-21T00:50:20.911Z,96.87
2018-03-21T00:51:20.892Z,96.96
2018-03-21T00:52:20.804Z,96.96
2018-03-21T00:53:20.753Z,96.96
2018-03-21T00:54:20.736Z,96.78
2018-03-21T00:55:20.650Z,96.96
2018-03-21T00:56:20.599Z,97.34
2018-03-21T00:57:20.578Z,97.25
2018-03-21T00:58:20.490Z,97.06
2018-03-21T00:59:20.438Z,97.15
2018-03-21T01:00:20.438Z,97.25
2018-03-21T01:01:20.334Z,97.44
2018-03-21T01:02:20.281Z,97.25
2018-03-21T01:03:20.261Z,97.06
2018-03-21T01:04:20.180Z,97.25
2018-03-21T01:05:20.122Z,97.25
2018-03-21T01:06:20.100Z,97.25
2018-03-21T01:07:20.018Z,97.25
2018-03-21T01:08:19.975Z,97.63
2018-03-21T01:09:19.944Z,97.25
2018-03-21T01:10:19.858Z,97.91
2018-03-21T01:11:19.807Z,97.91
2018-03-21T01:12:19.786Z,97.72
2018-03-21T01:13:19.701Z,98.10
2018-03-21T01:14:19.648Z,97.91
2018-03-21T01:15:19.630Z,97.81
2018-03-21T01:16:19.546Z,97.81
2018-03-21T01:17:19.489Z,97.81
2018-03-21T01:18:19.475Z,97.34
2018-03-21T01:19:19.384Z,97.34
2018-03-21T01:20:19.334Z,97.72
2018-03-21T01:21:19.321Z,98.00
2018-03-21T01:22:19.227Z,97.63
2018-03-21T01:23:19.176Z,98.00
2018-03-21T01:24:19.156Z,98.19
2018-03-21T01:25:19.068Z,97.63
2018-03-21T01:26:19.014Z,97.63
2018-03-21T01:27:18.999Z,98.00
2018-03-21T01:28:18.912Z,97.91
2018-03-21T01:29:18.862Z,97.63
2018-03-21T01:30:18.840Z,97.91
2018-03-21T01:31:18.758Z,97.34
2018-03-21T01:32:18.702Z,97.34
2018-03-21T01:33:18.683Z,97.44
2018-03-21T01:34:18.596Z,97.53
2018-03-21T01:35:18.546Z,97.91
2018-03-21T01:36:18.522Z,97.44
2018-03-21T01:37:18.439Z,97.81
2018-03-21T01:38:18.386Z,97.63
2018-03-21T01:39:18.367Z,97.81
2018-03-21T01:40:18.281Z,98.10
2018-03-21T01:41:18.229Z,97.06
2018-03-21T01:42:18.201Z,96.96
2018-03-21T01:43:18.127Z,98.10
2018-03-21T01:44:18.068Z,97.81
2018-03-21T01:45:18.052Z,97.25
2018-03-21T01:46:17.964Z,97.06
2018-03-21T01:47:17.912Z,96.21
2018-03-21T01:48:17.898Z,96.59
2018-03-21T01:49:17.818Z,97.15
2018-03-21T01:50:17.749Z,96.78
2018-03-21T01:51:17.734Z,96.30
2018-03-21T01:52:17.649Z,96.78
2018-03-21T01:53:17.595Z,96.78
2018-03-21T01:54:17.576Z,97.44
2018-03-21T01:55:17.490Z,97.34
2018-03-21T01:56:17.438Z,96.78
2018-03-21T01:57:17.419Z,96.30
2018-03-21T01:58:17.331Z,96.87
2018-03-21T01:59:17.279Z,96.11
2018-03-21T02:00:17.260Z,95.73
2018-03-21T02:01:17.176Z,96.11
2018-03-21T02:02:17.122Z,95.83
2018-03-21T02:03:17.103Z,95.92
2018-03-21T02:04:17.014Z,95.83
2018-03-21T02:05:16.967Z,95.92
2018-03-21T02:06:16.940Z,95.64
2018-03-21T02:07:16.857Z,95.26
2018-03-21T02:08:16.807Z,95.73
2018-03-21T02:09:16.804Z,96.21
2018-03-21T02:10:16.696Z,95.26
2018-03-21T02:11:16.647Z,95.07
2018-03-21T02:12:16.628Z,95.64
2018-03-21T02:13:16.540Z,95.36
2018-03-21T02:14:16.487Z,95.17
2018-03-21T02:15:16.471Z,94.79
2018-03-21T02:16:16.391Z,94.22
2018-03-21T02:17:16.330Z,94.03
2018-03-21T02:18:16.313Z,93.56
2018-03-21T02:19:16.226Z,94.13
2018-03-21T02:20:16.172Z,93.75
2018-03-21T02:21:16.153Z,94.41
2018-03-21T02:22:16.071Z,94.22
2018-03-21T02:23:16.013Z,94.03
2018-03-21T02:24:15.956Z,93.56
2018-03-21T02:25:15.907Z,94.41
2018-03-21T02:26:15.890Z,94.60
2018-03-21T02:27:15.799Z,93.56
2018-03-21T02:28:15.748Z,93.47
2018-03-21T02:29:15.695Z,93.84
2018-03-21T02:30:15.642Z,93.75
2018-03-21T02:31:15.624Z,93.42
2018-03-21T02:32:15.535Z,93.66
2018-03-21T02:33:15.484Z,93.84
2018-03-21T02:34:15.435Z,94.60
2018-03-21T02:35:15.382Z,94.41
2018-03-21T02:36:15.359Z,94.41
2018-03-21T02:37:15.294Z,94.32
2018-03-21T02:38:15.220Z,94.41
2018-03-21T02:39:15.166Z,94.13
2018-03-21T02:40:15.115Z,93.84
2018-03-21T02:41:15.103Z,93.94
2018-03-21T02:42:15.006Z,94.13
2018-03-21T02:43:15.061Z,94.03
2018-03-21T02:44:14.900Z,94.41
2018-03-21T02:45:14.850Z,93.89
2018-03-21T02:46:14.795Z,93.13
2018-03-21T02:47:14.749Z,93.51
2018-03-21T02:48:14.724Z,93.37
2018-03-21T02:49:14.637Z,93.18
2018-03-21T02:50:14.581Z,93.94
2018-03-21T02:51:14.528Z,93.99
2018-03-21T02:52:14.479Z,93.89
2018-03-21T02:53:14.458Z,93.28
2018-03-21T02:54:14.376Z,93.42
2018-03-21T02:55:14.320Z,93.13
2018-03-21T02:56:14.266Z,93.23
2018-03-21T02:57:14.212Z,93.23
2018-03-21T02:58:14.198Z,93.04
2018-03-21T02:59:14.109Z,94.08
2018-03-21T03:00:14.064Z,93.42
2018-03-21T03:01:14.005Z,93.80
2018-03-21T03:02:13.948Z,93.89
2018-03-21T03:03:13.935Z,93.75
2018-03-21T03:04:13.842Z,94.08
2018-03-21T03:05:13.796Z,93.32
2018-03-21T03:06:13.740Z,93.61
2018-03-21T03:07:13.685Z,93.80
2018-03-21T03:08:13.662Z,93.99
2018-03-21T03:09:13.578Z,94.27
2018-03-21T03:10:13.524Z,93.80
2018-03-21T03:11:13.470Z,93.99
2018-03-21T03:12:13.420Z,94.18
2018-03-21T03:13:13.403Z,94.27
2018-03-21T03:14:13.311Z,94.08
2018-03-21T03:15:13.261Z,93.99
2018-03-21T03:16:13.212Z,93.51
2018-03-21T03:17:13.154Z,93.51
2018-03-21T03:18:13.136Z,93.89
2018-03-21T03:19:13.048Z,93.80
2018-03-21T03:20:12.996Z,93.80
2018-03-21T03:21:12.948Z,93.70
2018-03-21T03:22:12.889Z,93.89
2018-03-21T03:23:12.867Z,93.89
2018-03-21T03:24:12.784Z,93.61
2018-03-21T03:25:12.730Z,93.61
2018-03-21T03:26:12.681Z,93.04
2018-03-21T03:27:12.624Z,93.23
2018-03-21T03:28:12.609Z,93.23
2018-03-21T03:29:12.519Z,93.61
2018-03-21T03:30:12.465Z,93.80
2018-03-21T03:31:12.415Z,93.51
2018-03-21T03:32:12.359Z,92.94
2018-03-21T03:33:12.359Z,93.23
2018-03-21T03:34:12.252Z,92.76
2018-03-21T03:35:12.199Z,92.85
2018-03-21T03:36:12.149Z,92.29
2018-03-21T03:37:12.095Z,92.19
2018-03-21T03:38:12.084Z,92.10
2018-03-21T03:39:12.059Z,92.29
2018-03-21T03:40:11.936Z,92.47
2018-03-21T03:41:11.884Z,92.47
2018-03-21T03:42:11.828Z,92.47
2018-03-21T03:43:11.813Z,92.29
2018-03-21T03:44:11.725Z,92.10
2018-03-21T03:45:11.671Z,91.44
2018-03-21T03:46:11.618Z,91.06
2018-03-21T03:47:11.564Z,90.77
2018-03-21T03:48:11.545Z,91.25
2018-03-21T03:49:11.458Z,91.82
2018-03-21T03:50:11.406Z,91.53
2018-03-21T03:51:11.352Z,90.96
2018-03-21T03:52:11.300Z,91.91
2018-03-21T03:53:11.281Z,91.53
2018-03-21T03:54:11.192Z,91.82
2018-03-21T03:55:11.138Z,90.77
2018-03-21T03:56:11.086Z,91.53
2018-03-21T03:57:11.040Z,91.34
2018-03-21T03:58:11.017Z,91.44
2018-03-21T03:59:10.927Z,90.40
2018-03-21T04:00:10.878Z,91.25
2018-03-21T04:01:10.823Z,90.87
2018-03-21T04:02:10.765Z,91.15
2018-03-21T04:03:10.747Z,90.87
2018-03-21T04:04:10.665Z,91.34
2018-03-21T04:05:10.611Z,90.87
2018-03-21T04:06:10.555Z,89.92
2018-03-21T04:07:10.504Z,89.17
2018-03-21T04:08:10.487Z,90.02
2018-03-21T04:09:10.400Z,90.21
2018-03-21T04:10:10.342Z,89.92
2018-03-21T04:11:10.290Z,89.92
2018-03-21T04:12:10.236Z,90.11
2018-03-21T04:13:10.218Z,89.54
2018-03-21T04:14:10.129Z,89.54
2018-03-21T04:15:10.146Z,89.92
2018-03-21T04:16:10.058Z,89.73
2018-03-21T04:17:09.971Z,89.36
2018-03-21T04:18:09.920Z,89.73
2018-03-21T04:19:09.865Z,90.11
2018-03-21T04:20:09.813Z,89.64
2018-03-21T04:21:09.791Z,89.54
2018-03-21T04:22:09.704Z,89.36
2018-03-21T04:23:09.702Z,89.36
2018-03-21T04:24:09.611Z,88.79
2018-03-21T04:25:09.547Z,89.26
2018-03-21T04:26:09.530Z,89.45
2018-03-21T04:27:09.441Z,90.59
2018-03-21T04:28:09.386Z,90.30
2018-03-21T04:29:09.331Z,90.21
2018-03-21T04:30:09.280Z,89.83
2018-03-21T04:31:09.260Z,88.89
2018-03-21T04:32:09.172Z,89.54
2018-03-21T04:33:09.128Z,89.54
2018-03-21T04:34:09.066Z,88.98
2018-03-21T04:35:09.012Z,89.26
2018-03-21T04:36:08.994Z,88.89
2018-03-21T04:37:08.910Z,88.98
2018-03-21T04:38:08.852Z,88.60
2018-03-21T04:39:08.799Z,88.89
2018-03-21T04:40:08.747Z,89.07
2018-03-21T04:41:08.728Z,88.70
2018-03-21T04:42:08.641Z,88.42
2018-03-21T04:43:08.590Z,89.45
2018-03-21T04:44:08.534Z,88.60
2018-03-21T04:45:08.505Z,88.79
2018-03-21T04:46:08.464Z,88.23
2018-03-21T04:47:08.377Z,88.32
2018-03-21T04:48:08.318Z,88.13
2018-03-21T04:49:08.265Z,89.45
2018-03-21T04:50:08.213Z,89.54
2018-03-21T04:51:08.189Z,89.45
2018-03-21T04:52:08.107Z,89.54
2018-03-21T04:53:08.054Z,88.51
2018-03-21T04:54:08.000Z,88.98
2018-03-21T04:55:07.958Z,88.70
2018-03-21T04:56:07.926Z,88.89
2018-03-21T04:57:07.841Z,88.79
2018-03-21T04:58:07.785Z,89.07
2018-03-21T04:59:07.733Z,88.60
2018-03-21T05:00:07.681Z,88.79
2018-03-21T05:01:07.661Z,88.89
2018-03-21T05:02:07.573Z,89.45
2018-03-21T05:03:07.519Z,89.17
2018-03-21T05:04:07.468Z,89.36
2018-03-21T05:05:07.415Z,88.98
2018-03-21T05:06:07.396Z,89.17
2018-03-21T05:07:07.305Z,88.89
2018-03-21T05:08:07.255Z,88.79
2018-03-21T05:09:07.202Z,89.36
2018-03-21T05:10:07.145Z,88.98
2018-03-21T05:11:07.132Z,88.89
2018-03-21T05:12:07.041Z,88.60
2018-03-21T05:13:06.986Z,88.98
2018-03-21T05:14:06.933Z,88.89
2018-03-21T05:15:06.881Z,89.54
2018-03-21T05:16:06.860Z,90.11
2018-03-21T05:17:06.773Z,89.17
2018-03-21T05:18:06.718Z,88.89
2018-03-21T05:19:06.668Z,89.07
2018-03-21T05:20:06.612Z,89.26
2018-03-21T05:21:06.592Z,89.17
2018-03-21T05:22:06.505Z,88.98
2018-03-21T05:23:06.453Z,88.89
2018-03-21T05:24:06.400Z,88.89
2018-03-21T05:25:06.344Z,88.04
2018-03-21T05:26:06.329Z,88.13
2018-03-21T05:27:06.240Z,87.94
2018-03-21T05:28:06.184Z,88.42
2018-03-21T05:29:06.132Z,88.13
2018-03-21T05:30:06.078Z,87.47
2018-03-21T05:31:06.058Z,87.18
2018-03-21T05:32:05.972Z,88.42
2018-03-21T05:33:05.921Z,87.85
2018-03-21T05:34:05.864Z,87.47
2018-03-21T05:35:05.811Z,86.80
2018-03-21T05:36:05.791Z,86.43
2018-03-21T05:37:05.707Z,86.62
2018-03-21T05:38:05.651Z,86.33
2018-03-21T05:39:05.594Z,86.71
2018-03-21T05:40:05.545Z,85.96
2018-03-21T05:41:05.526Z,86.80
2018-03-21T05:42:05.436Z,86.62
2018-03-21T05:43:05.379Z,85.77
2018-03-21T05:44:05.333Z,85.49
2018-03-21T05:45:05.281Z,86.71
2018-03-21T05:46:05.258Z,86.71
2018-03-21T05:47:05.179Z,86.05
2018-03-21T05:48:05.131Z,86.15
2018-03-21T05:49:05.067Z,85.58
2018-03-21T05:50:05.011Z,85.86
2018-03-21T05:51:04.985Z,86.05
2018-03-21T05:52:04.904Z,85.86
2018-03-21T05:53:04.852Z,85.30
2018-03-21T05:54:04.798Z,85.58
2018-03-21T05:55:04.751Z,85.11
2018-03-21T05:56:04.726Z,85.11
2018-03-21T05:57:04.648Z,85.11
2018-03-21T05:58:04.584Z,85.39
2018-03-21T05:59:04.525Z,85.96
2018-03-21T06:00:04.478Z,85.11
2018-03-21T06:01:04.464Z,85.39
2018-03-21T06:02:04.372Z,85.11
2018-03-21T06:03:04.320Z,84.92
2018-03-21T06:04:04.264Z,85.30
2018-03-21T06:05:04.214Z,84.92
2018-03-21T06:06:04.158Z,85.20
2018-03-21T06:07:04.104Z,85.39
2018-03-21T06:08:04.052Z,85.30
2018-03-21T06:09:03.997Z,85.01
2018-03-21T06:10:03.943Z,85.06
2018-03-21T06:11:03.894Z,85.39
2018-03-21T06:12:03.837Z,84.97
2018-03-21T06:13:03.784Z,85.30
2018-03-21T06:14:03.731Z,85.63
2018-03-21T06:15:03.683Z,85.53
2018-03-21T06:16:03.640Z,85.44
2018-03-21T06:17:03.574Z,85.72
2018-03-21T06:18:03.608Z,85.63
2018-03-21T06:19:03.464Z,85.63
2018-03-21T06:20:03.422Z,85.01
2018-03-21T06:21:03.354Z,84.07
2018-03-21T06:22:03.304Z,83.97
2018-03-21T06:23:03.254Z,84.07
2018-03-21T06:24:03.200Z,83.40
2018-03-21T06:25:03.150Z,83.50
2018-03-21T06:26:03.100Z,83.03
2018-03-21T06:27:03.045Z,83.59
2018-03-21T06:28:02.987Z,83.69
2018-03-21T06:29:02.935Z,83.59
2018-03-21T06:30:02.956Z,83.50
2018-03-21T06:31:02.828Z,83.12
2018-03-21T06:32:02.775Z,82.56
2018-03-21T06:33:02.757Z,82.56
2018-03-21T06:34:02.669Z,82.46
2018-03-21T06:35:02.615Z,82.37
2018-03-21T06:36:02.566Z,82.28
2018-03-21T06:37:02.514Z,80.80
2018-03-21T06:38:02.517Z,80.99
2018-03-21T06:39:02.407Z,80.43
2018-03-21T06:40:02.361Z,80.99
2018-03-21T06:41:02.301Z,80.14
2018-03-21T06:42:02.247Z,79.95
2018-03-21T06:43:02.201Z,80.14
2018-03-21T06:44:02.233Z,80.05
2018-03-21T06:45:02.101Z,80.71
2018-03-21T06:46:02.130Z,80.05
2018-03-21T06:47:01.980Z,80.05
2018-03-21T06:48:01.930Z,80.24
2018-03-21T06:49:01.894Z,80.05
2018-03-21T06:50:01.829Z,79.95
2018-03-21T06:51:01.995Z,79.95
2018-03-21T06:52:01.723Z,80.05
2018-03-21T06:53:01.672Z,80.33
2018-03-21T06:54:01.620Z,79.86
2018-03-21T06:55:01.572Z,79.38
2018-03-21T06:56:01.532Z,79.48
2018-03-21T06:57:01.463Z,79.29
2018-03-21T06:58:01.410Z,79.29
2018-03-21T06:59:01.366Z,79.19
2018-03-21T07:00:01.330Z,79.00
2018-03-21T07:01:01.255Z,79.00
2018-03-21T07:02:01.209Z,79.48
2018-03-21T07:03:01.179Z,79.38
2018-03-21T07:04:01.143Z,79.67
2018-03-21T07:05:01.065Z,79.29
2018-03-21T07:06:01.069Z,79.10
2018-03-21T07:07:00.964Z,78.72
2018-03-21T07:08:00.894Z,78.91
2018-03-21T07:09:00.854Z,79.38
2018-03-21T07:10:00.840Z,79.06
2018-03-21T07:11:00.741Z,79.76
2018-03-21T07:12:00.702Z,79.48
2018-03-21T07:13:00.638Z,78.44
2018-03-21T07:14:00.586Z,79.00
2018-03-21T07:15:00.553Z,78.53
2018-03-21T07:16:00.499Z,77.31
2018-03-21T07:17:00.439Z,77.21
2018-03-21T07:18:00.385Z,77.31
2018-03-21T07:19:00.336Z,77.12
2018-03-21T07:20:00.288Z,77.40
2018-03-21T07:21:00.266Z,77.59
2018-03-21T07:22:00.191Z,77.78
2018-03-21T07:23:00.155Z,77.97
2018-03-21T07:24:00.076Z,77.97
2018-03-21T07:25:00.029Z,77.50
2018-03-21T07:26:00.172Z,77.02
2018-03-21T07:26:59.948Z,76.26
2018-03-21T07:27:59.916Z,77.02
2018-03-21T07:28:59.830Z,76.93
2018-03-21T07:29:59.782Z,76.93
2018-03-21T07:30:59.723Z,77.02
2018-03-21T07:31:59.674Z,77.12
2018-03-21T07:32:59.619Z,76.64
2018-03-21T07:33:59.592Z,77.26
2018-03-21T07:34:59.531Z,78.81
2018-03-21T07:35:59.473Z,79.53
2018-03-21T07:36:59.436Z,80.00
2018-03-21T07:37:59.370Z,79.86
2018-03-21T07:38:59.342Z,78.63
2018-03-21T07:39:59.320Z,78.81
2018-03-21T07:40:59.225Z,78.91
2018-03-21T07:41:59.179Z,78.53
2018-03-21T07:42:59.115Z,78.31
2018-03-21T07:43:59.059Z,79.53
2018-03-21T07:44:59.011Z,80.48
2018-03-21T07:45:58.955Z,80.57
2018-03-21T07:46:58.910Z,80.66
2018-03-21T07:47:58.859Z,80.05
2018-03-21T07:48:58.806Z,79.00
2018-03-21T07:49:58.830Z,78.34
2018-03-21T07:50:58.743Z,78.16
2018-03-21T07:51:58.701Z,76.83
2018-03-21T07:52:58.673Z,76.36
2018-03-21T07:53:58.595Z,77.02
2018-03-21T07:54:58.613Z,77.31
2018-03-21T07:55:58.493Z,77.59
2018-03-21T07:56:58.478Z,77.21
2018-03-21T07:57:58.380Z,77.50
2018-03-21T07:58:58.349Z,77.02
2018-03-21T07:59:58.271Z,77.12
2018-03-21T08:00:58.223Z,77.21
2018-03-21T08:01:58.152Z,77.31
2018-03-21T08:02:58.081Z,76.93
2018-03-21T08:03:58.041Z,77.40
2018-03-21T08:04:57.992Z,76.64
2018-03-21T08:05:57.942Z,76.45
2018-03-21T08:06:57.881Z,76.64
2018-03-21T08:07:57.839Z,76.64
2018-03-21T08:08:57.784Z,76.64
2018-03-21T08:09:57.824Z,77.02
2018-03-21T08:10:57.682Z,76.83
2018-03-21T08:11:57.628Z,76.17
2018-03-21T08:12:57.579Z,76.26
2018-03-21T08:13:57.575Z,76.45
2018-03-21T08:14:57.479Z,76.40
2018-03-21T08:15:57.465Z,76.68
2018-03-21T08:16:57.431Z,75.51
2018-03-21T08:17:57.324Z,75.83
2018-03-21T08:18:57.579Z,75.64
2018-03-21T08:19:57.307Z,75.93
2018-03-21T08:20:57.179Z,75.83
2018-03-21T08:21:57.150Z,75.83
2018-03-21T08:22:57.089Z,75.26
2018-03-21T08:23:57.025Z,75.07
2018-03-21T08:24:56.971Z,75.93
2018-03-21T08:25:57.052Z,75.17
2018-03-21T08:26:56.872Z,74.04
2018-03-21T08:27:56.821Z,73.32
2018-03-21T08:28:56.768Z,71.33
2018-03-21T08:29:56.718Z,71.61
2018-03-21T08:30:56.659Z,71.95
2018-03-21T08:31:56.770Z,72.99
2018-03-21T08:32:56.582Z,73.09
2018-03-21T08:33:56.531Z,71.39
2018-03-21T08:34:56.481Z,71.01
2018-03-21T08:35:56.493Z,71.80
2018-03-21T08:36:56.408Z,72.14
2018-03-21T08:37:56.343Z,71.80
2018-03-21T08:38:56.357Z,71.58
2018-03-21T08:39:56.230Z,71.30
2018-03-21T08:40:56.157Z,71.11
2018-03-21T08:41:56.885Z,71.61
2018-03-21T08:42:56.069Z,72.18
2018-03-21T08:43:56.426Z,70.67
2018-03-21T08:44:56.442Z,70.29
2018-03-21T08:45:55.901Z,70.20
2018-03-21T08:46:55.858Z,70.20
2018-03-21T08:47:55.824Z,70.10
2018-03-21T08:48:56.023Z,69.53
2018-03-21T08:49:55.714Z,69.44
2018-03-21T08:50:55.652Z,68.59
2018-03-21T08:51:55.604Z,68.68
2018-03-21T08:52:55.559Z,68.96
2018-03-21T08:53:55.512Z,69.72
2018-03-21T08:54:55.451Z,69.34
2018-03-21T08:55:55.403Z,70.10
2018-03-21T08:56:55.357Z,70.10
2018-03-21T08:57:55.301Z,69.82
2018-03-21T08:58:55.834Z,70.39
2018-03-21T08:59:55.206Z,69.72
2018-03-21T09:00:55.173Z,68.77
2018-03-21T09:01:55.112Z,69.63
2018-03-21T09:02:55.058Z,69.72
2018-03-21T09:03:55.010Z,69.44
2018-03-21T09:04:55.610Z,69.72
2018-03-21T09:05:54.912Z,69.53
2018-03-21T09:06:54.857Z,69.00
2018-03-21T09:07:54.831Z,68.24
2018-03-21T09:08:54.775Z,68.43
2018-03-21T09:09:54.712Z,68.90
2018-03-21T09:10:54.660Z,68.12
2018-03-21T09:11:54.605Z,68.30
2018-03-21T09:12:54.556Z,69.44
2018-03-21T09:13:54.506Z,69.63
2018-03-21T09:14:54.461Z,70.10
2018-03-21T09:15:54.456Z,69.06
2018-03-21T09:16:54.355Z,68.87
2018-03-21T09:17:54.361Z,69.47
2018-03-21T09:18:54.266Z,68.59
2018-03-21T09:19:54.238Z,67.93
2018-03-21T09:20:54.186Z,67.74
2018-03-21T09:21:54.107Z,68.68
2018-03-21T09:22:54.053Z,68.40
2018-03-21T09:23:54.008Z,68.68
2018-03-21T09:24:53.959Z,68.59
2018-03-21T09:25:53.942Z,69.15
2018-03-21T09:26:53.857Z,69.00
2018-03-21T09:27:53.816Z,69.47
2018-03-21T09:28:53.759Z,68.24
2018-03-21T09:29:53.733Z,68.71
2018-03-21T09:30:53.657Z,68.24
2018-03-21T09:31:53.611Z,68.33
2018-03-21T09:32:53.561Z,69.38
2018-03-21T09:33:53.551Z,69.09
2018-03-21T09:34:53.455Z,68.90
2018-03-21T09:35:53.451Z,68.15
2018-03-21T09:36:53.359Z,67.68
2018-03-21T09:37:53.306Z,67.68
2018-03-21T09:38:53.255Z,67.96
2018-03-21T09:39:53.229Z,67.64
2018-03-21T09:40:53.204Z,69.09
2018-03-21T09:41:53.120Z,69.76
2018-03-21T09:42:53.075Z,69.00
2018-03-21T09:43:53.042Z,68.33
2018-03-21T09:44:52.956Z,69.00
2018-03-21T09:45:52.907Z,69.00
2018-03-21T09:46:52.878Z,68.43
2018-03-21T09:47:52.807Z,67.74
2018-03-21T09:48:52.765Z,67.74
2018-03-21T09:49:52.711Z,68.21
2018-03-21T09:50:52.655Z,68.77
2018-03-21T09:51:52.605Z,68.30
2018-03-21T09:55:59.223Z,68.15
2018-03-21T09:56:56.535Z,66.25
2018-03-21T09:57:56.482Z,65.69
2018-03-21T09:58:56.832Z,66.44
2018-03-21T09:59:56.385Z,67.17
2018-03-21T10:00:56.351Z,68.40
2018-03-21T10:01:56.283Z,68.49
2018-03-21T10:02:56.252Z,69.53
2018-03-21T10:03:56.189Z,69.63
2018-03-21T10:05:17.117Z,68.87
2018-03-21T10:05:56.080Z,68.12
2018-03-21T10:06:56.030Z,67.45
2018-03-21T10:07:55.979Z,66.88
2018-03-21T10:08:55.945Z,66.79
2018-03-21T10:09:55.895Z,67.26
2018-03-21T10:10:55.831Z,66.53
2018-03-21T10:11:55.779Z,66.03
2018-03-21T10:12:55.728Z,66.44
2018-03-21T10:13:55.674Z,65.59
2018-03-21T10:14:55.631Z,65.50
2018-03-21T10:15:55.576Z,65.69
2018-03-21T10:16:55.526Z,65.78
2018-03-21T10:17:55.482Z,65.88
2018-03-21T10:18:55.476Z,65.50
2018-03-21T10:19:55.635Z,66.00
2018-03-21T10:20:55.325Z,63.89
2018-03-21T10:21:55.282Z,62.94
2018-03-21T10:22:55.257Z,63.04
2018-03-21T10:23:55.189Z,63.79
2018-03-21T10:24:55.337Z,64.36
2018-03-21T10:25:55.071Z,63.79
2018-03-21T10:26:55.790Z,64.17
2018-03-21T10:27:55.000Z,63.98
2018-03-21T10:28:54.980Z,63.79
2018-03-21T10:29:55.895Z,62.09
2018-03-21T10:30:55.028Z,60.38
2018-03-21T10:31:54.795Z,60.96
2018-03-21T10:33:09.700Z,61.99
2018-03-21T10:33:54.684Z,62.21
2018-03-21T10:34:54.630Z,61.83
2018-03-21T10:36:15.564Z,61.18
2018-03-21T10:36:54.523Z,61.08
2018-03-21T10:37:54.481Z,61.18
2018-03-21T10:38:54.424Z,59.94
2018-03-21T10:39:54.373Z,59.28
2018-03-21T10:40:54.351Z,59.00
2018-03-21T10:41:54.271Z,59.28
2018-03-21T10:42:54.226Z,60.22
2018-03-21T10:43:54.186Z,60.03
2018-03-21T10:44:54.368Z,59.84
2018-03-21T10:45:54.522Z,60.41
2018-03-21T10:46:54.020Z,62.40
2018-03-21T10:47:54.084Z,62.02
2018-03-21T10:48:54.049Z,61.65
2018-03-21T10:49:53.884Z,60.41
2018-03-21T10:50:53.858Z,60.32
2018-03-21T10:51:53.845Z,59.19
2018-03-21T10:52:53.729Z,58.05
2018-03-21T10:53:53.687Z,58.24
2018-03-21T10:54:53.628Z,58.62
2018-03-21T10:55:53.579Z,58.33
2018-03-21T10:56:53.527Z,59.53
2018-03-21T10:57:53.483Z,60.89
2018-03-21T10:58:53.427Z,60.32
2018-03-21T10:59:53.383Z,59.84
2018-03-21T11:00:53.328Z,58.43
2018-03-21T11:01:53.285Z,57.39
2018-03-21T11:02:53.228Z,58.24
2018-03-21T11:03:53.180Z,56.82
2018-03-21T11:04:53.137Z,57.10
2018-03-21T11:05:53.105Z,56.53
2018-03-21T11:06:53.054Z,57.67
2018-03-21T11:07:53.009Z,57.01
2018-03-21T11:08:52.932Z,55.02
2018-03-21T11:09:52.924Z,55.40
2018-03-21T11:10:52.837Z,56.63
2018-03-21T11:11:52.817Z,55.58
2018-03-21T11:12:52.758Z,54.45
2018-03-21T11:13:52.704Z,55.21
2018-03-21T11:14:52.635Z,55.30
2018-03-21T11:15:52.584Z,54.55
2018-03-21T11:16:52.536Z,55.11
2018-03-21T11:17:52.488Z,56.25
2018-03-21T11:18:52.437Z,55.56
2018-03-21T11:19:52.387Z,54.90
2018-03-21T11:20:52.337Z,54.99
2018-03-21T11:21:52.287Z,54.04
2018-03-21T11:22:52.238Z,54.35
2018-03-21T11:23:52.197Z,53.78
2018-03-21T11:24:52.138Z,53.41
2018-03-21T11:25:52.087Z,53.41
2018-03-21T11:26:52.037Z,53.22
2018-03-21T11:27:51.988Z,53.78
2018-03-21T11:28:51.937Z,54.16
2018-03-21T11:29:52.026Z,54.55
2018-03-21T11:30:51.839Z,54.45
2018-03-21T11:31:51.794Z,51.89
2018-03-21T11:32:51.737Z,51.11
2018-03-21T11:33:51.716Z,51.20
2018-03-21T11:34:52.003Z,51.68
2018-03-21T11:35:51.766Z,51.68
2018-03-21T11:36:51.610Z,52.25
2018-03-21T11:37:51.520Z,52.06
2018-03-21T11:38:51.449Z,51.58
2018-03-21T11:39:51.387Z,51.77
2018-03-21T11:40:51.374Z,52.34
2018-03-21T11:41:51.287Z,52.53
2018-03-21T11:42:51.249Z,52.37
2018-03-21T11:43:51.207Z,52.65
2018-03-21T11:44:51.150Z,51.14
2018-03-21T11:45:51.099Z,51.42
2018-03-21T11:46:51.057Z,51.80
2018-03-21T11:47:50.984Z,51.51
2018-03-21T11:48:50.967Z,52.27
2018-03-21T11:49:50.883Z,52.27
2018-03-21T11:50:50.838Z,52.58
2018-03-21T11:51:50.787Z,52.20
2018-03-21T11:52:50.764Z,52.29
2018-03-21T11:53:50.697Z,51.82
2018-03-21T11:54:50.667Z,51.92
2018-03-21T11:55:50.599Z,51.04
2018-03-21T11:56:50.570Z,50.66
2018-03-21T11:57:51.350Z,50.59
2018-03-21T11:58:50.431Z,50.69
2018-03-21T11:59:50.390Z,51.54
2018-03-21T12:00:50.339Z,50.59
2018-03-21T12:01:50.292Z,49.84
2018-03-21T12:02:50.485Z,48.89
2018-03-21T12:03:50.446Z,47.47
2018-03-21T12:04:50.174Z,46.04
2018-03-21T12:05:50.099Z,45.29
2018-03-21T12:06:50.045Z,46.04
2018-03-21T12:07:49.990Z,47.47
2018-03-21T12:08:49.940Z,47.94
2018-03-21T12:09:49.922Z,45.76
2018-03-21T12:10:51.802Z,44.43
2018-03-21T12:11:49.793Z,44.91
2018-03-21T12:12:49.744Z,44.27
2018-03-21T12:13:49.699Z,44.74
2018-03-21T12:14:49.658Z,43.88
2018-03-21T12:15:49.596Z,41.80
2018-03-21T12:16:49.548Z,41.78
2018-03-21T12:17:52.246Z,43.01
2018-03-21T12:18:49.450Z,44.46
2018-03-21T12:19:49.401Z,45.12
2018-03-21T12:20:50.201Z,45.31
2018-03-21T12:21:52.231Z,44.93
2018-03-21T12:22:49.254Z,45.12
2018-03-21T12:23:49.206Z,45.03
2018-03-21T12:24:49.160Z,45.12
2018-03-21T12:25:49.146Z,44.93
2018-03-21T12:26:49.069Z,44.93
2018-03-21T12:27:49.043Z,45.19
2018-03-21T12:28:55.729Z,45.19
2018-03-21T12:29:48.912Z,46.64
2018-03-21T12:30:48.863Z,46.73
2018-03-21T12:31:49.696Z,45.97
2018-03-21T12:32:48.829Z,47.02
2018-03-21T12:33:48.734Z,47.77
2018-03-21T12:34:48.669Z,49.01
2018-03-21T12:35:48.635Z,50.62
2018-03-21T12:36:48.572Z,50.81
2018-03-21T12:37:55.241Z,51.09
2018-03-21T12:38:48.477Z,49.57
2018-03-21T12:39:48.430Z,48.32
2018-03-21T12:40:49.197Z,49.17
2018-03-21T12:41:48.331Z,50.19
2018-03-21T12:42:48.280Z,51.16
2018-03-21T12:43:48.239Z,51.26
2018-03-21T12:44:54.700Z,51.54
2018-03-21T12:45:48.138Z,51.73
2018-03-21T12:46:48.090Z,51.54
2018-03-21T12:47:48.041Z,51.16
2018-03-21T12:48:54.733Z,51.16
2018-03-21T12:49:47.953Z,50.97
2018-03-21T12:50:47.896Z,50.49
2018-03-21T12:51:47.848Z,50.49
2018-03-21T12:52:47.803Z,50.49
2018-03-21T12:53:47.749Z,50.34
2018-03-21T12:54:47.701Z,49.93